createdAt,value
2017-12-16T00:00:42.995Z,11.20
2017-12-16T00:01:42.991Z,11.20
2017-12-16T00:02:42.980Z,11.60
2017-12-16T00:03:42.981Z,10.00
2017-12-16T00:04:42.974Z,9.60
2017-12-16T00:05:42.983Z,10.80
2017-12-16T00:06:42.966Z,10.00
2017-12-16T00:07:42.974Z,12.10
2017-12-16T00:08:42.965Z,11.00
2017-12-16T00:09:42.960Z,10.20
2017-12-16T00:10:42.956Z,11.50
2017-12-16T00:11:42.956Z,11.10
2017-12-16T00:12:42.943Z,11.20
2017-12-16T00:13:42.943Z,10.40
2017-12-16T00:14:42.942Z,11.20
2017-12-16T00:15:42.944Z,11.60
2017-12-16T00:16:42.938Z,11.10
2017-12-16T00:17:42.932Z,9.80
2017-12-16T00:18:42.930Z,10.60
2017-12-16T00:19:42.916Z,10.50
2017-12-16T00:20:42.919Z,9.90
2017-12-16T00:21:42.909Z,10.80
2017-12-16T00:22:42.910Z,10.90
2017-12-16T00:23:42.904Z,10.60
2017-12-16T00:24:42.900Z,10.70
2017-12-16T00:25:42.952Z,11.00
2017-12-16T00:26:42.912Z,10.40
2017-12-16T00:27:42.892Z,9.90
2017-12-16T00:28:42.885Z,10.10
2017-12-16T00:29:42.882Z,10.60
2017-12-16T00:30:42.879Z,9.70
2017-12-16T00:31:42.875Z,8.40
2017-12-16T00:32:42.931Z,9.50
2017-12-16T00:33:42.868Z,9.30
2017-12-16T00:34:42.926Z,9.20
2017-12-16T00:35:42.860Z,9.40
2017-12-16T00:36:42.857Z,9.50
2017-12-16T00:37:42.858Z,9.40
2017-12-16T00:38:42.850Z,9.00
2017-12-16T00:39:42.854Z,9.70
2017-12-16T00:40:42.844Z,9.40
2017-12-16T00:41:42.848Z,9.90
2017-12-16T00:42:42.842Z,9.70
2017-12-16T00:43:42.835Z,9.80
2017-12-16T00:44:42.826Z,10.00
2017-12-16T00:45:42.828Z,10.00
2017-12-16T00:46:42.834Z,9.50
2017-12-16T00:47:42.816Z,10.90
2017-12-16T00:48:42.814Z,9.10
2017-12-16T00:49:42.821Z,10.00
2017-12-16T00:50:42.818Z,10.10
2017-12-16T00:51:42.811Z,9.90
2017-12-16T00:52:42.904Z,10.00
2017-12-16T00:53:42.794Z,10.40
2017-12-16T00:54:42.791Z,9.20
2017-12-16T00:55:42.787Z,10.10
2017-12-16T00:56:42.784Z,10.00
2017-12-16T00:57:42.787Z,10.10
2017-12-16T00:58:42.777Z,9.20
2017-12-16T00:59:43.691Z,11.30
2017-12-16T01:00:42.774Z,11.10
2017-12-16T01:01:42.776Z,10.50
2017-12-16T01:02:42.761Z,10.80
2017-12-16T01:03:42.763Z,10.70
2017-12-16T01:04:42.756Z,10.70
2017-12-16T01:05:42.755Z,10.00
2017-12-16T01:06:42.751Z,10.90
2017-12-16T01:07:42.748Z,9.70
2017-12-16T01:08:42.752Z,9.80
2017-12-16T01:09:42.740Z,10.10
2017-12-16T01:10:42.732Z,10.60
2017-12-16T01:11:42.730Z,10.40
2017-12-16T01:12:42.737Z,10.60
2017-12-16T01:13:42.721Z,10.10
2017-12-16T01:14:42.716Z,10.10
2017-12-16T01:15:42.716Z,9.70
2017-12-16T01:16:42.712Z,10.20
2017-12-16T01:17:42.706Z,9.50
2017-12-16T01:18:42.706Z,10.90
2017-12-16T01:21:42.787Z,10.70
2017-12-16T01:22:42.792Z,11.20
2017-12-16T01:23:42.788Z,10.50
2017-12-16T01:24:42.787Z,10.20
2017-12-16T01:25:42.720Z,10.40
2017-12-16T01:28:14.794Z,10.90
2017-12-16T01:29:14.755Z,10.40
2017-12-16T01:30:14.746Z,10.40
2017-12-16T01:31:14.742Z,9.90
2017-12-16T01:32:14.738Z,11.40
2017-12-16T01:33:14.734Z,11.40
2017-12-16T01:34:14.735Z,10.80
2017-12-16T01:35:14.730Z,11.20
2017-12-16T01:36:14.727Z,10.80
2017-12-16T01:37:14.731Z,11.10
2017-12-16T01:38:14.713Z,10.70
2017-12-16T01:39:14.710Z,11.50
2017-12-16T01:40:14.706Z,10.30
2017-12-16T01:41:14.705Z,10.50
2017-12-16T01:42:14.696Z,10.90
2017-12-16T01:43:14.695Z,11.60
2017-12-16T01:44:14.695Z,11.20
2017-12-16T01:45:14.685Z,11.30
2017-12-16T01:46:14.684Z,10.60
2017-12-16T01:47:14.683Z,11.30
2017-12-16T01:49:36.551Z,11.30
2017-12-16T01:50:45.762Z,11.80
2017-12-16T01:52:29.891Z,10.70
2017-12-16T01:54:50.447Z,10.30
2017-12-16T01:55:50.408Z,10.80
2017-12-16T01:56:50.409Z,11.10
2017-12-16T01:57:50.405Z,11.00
2017-12-16T01:58:50.400Z,12.10
2017-12-16T01:59:50.391Z,10.40
2017-12-16T02:00:50.396Z,10.50
2017-12-16T02:01:50.388Z,10.40
2017-12-16T02:02:50.382Z,10.60
2017-12-16T02:03:50.386Z,12.00
2017-12-16T02:04:50.375Z,10.80
2017-12-16T02:05:50.372Z,11.60
2017-12-16T02:06:50.368Z,12.10
2017-12-16T02:07:50.364Z,10.30
2017-12-16T02:08:50.358Z,10.20
2017-12-16T02:09:50.361Z,11.20
2017-12-16T02:10:50.352Z,11.20
2017-12-16T02:11:50.349Z,10.80
2017-12-16T02:12:50.342Z,11.40
2017-12-16T02:13:50.348Z,11.60
2017-12-16T02:14:50.341Z,12.20
2017-12-16T02:15:50.332Z,11.60
2017-12-16T02:16:50.335Z,12.30
2017-12-16T02:17:58.953Z,11.60
2017-12-16T02:19:43.713Z,11.80
2017-12-16T02:20:43.682Z,10.70
2017-12-16T02:21:43.679Z,11.40
2017-12-16T02:22:43.672Z,12.30
2017-12-16T02:23:43.672Z,11.80
2017-12-16T02:24:43.674Z,11.90
2017-12-16T02:25:43.670Z,11.30
2017-12-16T02:26:43.661Z,12.00
2017-12-16T02:27:43.656Z,12.70
2017-12-16T02:28:43.652Z,13.20
2017-12-16T02:29:43.645Z,12.60
2017-12-16T02:30:43.646Z,13.50
2017-12-16T02:31:43.640Z,12.80
2017-12-16T02:32:43.641Z,13.10
2017-12-16T02:33:43.632Z,11.70
2017-12-16T02:34:43.631Z,13.00
2017-12-16T02:35:43.631Z,11.30
2017-12-16T02:36:43.626Z,12.30
2017-12-16T02:37:43.615Z,12.30
2017-12-16T02:38:43.613Z,12.70
2017-12-16T02:39:43.607Z,12.70
2017-12-16T02:40:43.606Z,11.80
2017-12-16T02:41:43.606Z,11.80
2017-12-16T02:42:43.594Z,12.60
2017-12-16T02:43:43.601Z,12.00
2017-12-16T02:44:43.591Z,12.90
2017-12-16T02:45:52.270Z,13.30
2017-12-16T02:47:37.011Z,11.80
2017-12-16T02:51:34.343Z,11.50
2017-12-16T02:52:43.037Z,12.30
2017-12-16T02:54:27.733Z,12.40
2017-12-16T02:55:27.686Z,12.50
2017-12-16T02:56:27.680Z,12.20
2017-12-16T02:57:27.675Z,12.20
2017-12-16T02:58:27.669Z,12.50
2017-12-16T02:59:27.662Z,12.50
2017-12-16T03:00:27.665Z,12.40
2017-12-16T03:01:27.653Z,12.40
2017-12-16T03:02:27.652Z,12.50
2017-12-16T03:03:27.646Z,12.20
2017-12-16T03:04:27.649Z,12.60
2017-12-16T03:05:27.646Z,11.90
2017-12-16T03:06:27.637Z,13.00
2017-12-16T03:07:27.630Z,12.20
2017-12-16T03:08:27.625Z,12.20
2017-12-16T03:09:27.626Z,12.10
2017-12-16T03:10:27.620Z,12.20
2017-12-16T03:11:27.611Z,12.80
2017-12-16T03:12:27.613Z,11.30
2017-12-16T03:13:27.611Z,12.80
2017-12-16T03:14:27.604Z,12.10
2017-12-16T03:15:27.597Z,13.00
2017-12-16T03:16:27.595Z,12.10
2017-12-16T03:17:27.593Z,12.00
2017-12-16T03:18:27.594Z,11.20
2017-12-16T03:19:27.586Z,13.70
2017-12-16T03:20:27.579Z,11.80
2017-12-16T03:21:27.581Z,12.90
2017-12-16T03:22:27.572Z,12.40
2017-12-16T03:23:27.567Z,12.40
2017-12-16T03:24:27.570Z,13.60
2017-12-16T03:25:27.564Z,12.50
2017-12-16T03:26:27.565Z,13.10
2017-12-16T03:27:27.559Z,13.30
2017-12-16T03:28:27.547Z,13.50
2017-12-16T03:29:27.542Z,12.70
2017-12-16T03:30:27.550Z,14.00
2017-12-16T03:31:27.536Z,13.20
2017-12-16T03:32:27.534Z,13.80
2017-12-16T03:33:27.532Z,14.00
2017-12-16T03:34:27.525Z,12.60
2017-12-16T03:35:27.524Z,13.80
2017-12-16T03:36:27.517Z,12.90
2017-12-16T03:37:27.515Z,13.10
2017-12-16T03:38:27.508Z,11.90
2017-12-16T03:39:27.505Z,13.70
2017-12-16T03:40:27.500Z,14.20
2017-12-16T03:41:27.494Z,13.30
2017-12-16T03:42:27.492Z,13.40
2017-12-16T03:43:27.492Z,13.10
2017-12-16T03:44:27.482Z,13.90
2017-12-16T03:45:27.483Z,12.80
2017-12-16T03:46:27.480Z,12.00
2017-12-16T03:47:27.473Z,13.40
2017-12-16T03:48:27.469Z,13.60
2017-12-16T03:49:27.465Z,13.40
2017-12-16T03:50:27.474Z,12.90
2017-12-16T03:51:27.454Z,13.40
2017-12-16T03:52:27.449Z,13.20
2017-12-16T03:53:27.453Z,12.60
2017-12-16T03:54:27.443Z,13.50
2017-12-16T03:55:27.439Z,14.50
2017-12-16T03:56:27.438Z,12.40
2017-12-16T03:57:27.433Z,13.70
2017-12-16T03:58:27.434Z,13.70
2017-12-16T03:59:27.427Z,13.60
2017-12-16T04:00:27.421Z,14.20
2017-12-16T04:01:27.418Z,13.90
2017-12-16T04:02:27.423Z,13.90
2017-12-16T04:03:27.403Z,13.80
2017-12-16T04:04:27.410Z,13.90
2017-12-16T04:05:27.402Z,13.20
2017-12-16T04:06:27.390Z,13.30
2017-12-16T04:07:28.267Z,13.90
2017-12-16T04:08:27.385Z,14.30
2017-12-16T04:09:27.378Z,15.10
2017-12-16T04:10:27.375Z,14.00
2017-12-16T04:11:27.374Z,13.90
2017-12-16T04:12:27.371Z,14.00
2017-12-16T04:13:27.362Z,14.60
2017-12-16T04:14:27.365Z,14.00
2017-12-16T04:15:27.352Z,13.80
2017-12-16T04:16:27.355Z,15.40
2017-12-16T04:17:27.345Z,15.80
2017-12-16T04:18:27.340Z,14.60
2017-12-16T04:19:27.336Z,14.80
2017-12-16T04:20:27.335Z,14.60
2017-12-16T04:21:27.332Z,14.10
2017-12-16T04:22:27.324Z,13.90
2017-12-16T04:23:27.322Z,14.90
2017-12-16T04:24:27.314Z,15.20
2017-12-16T04:25:27.314Z,15.20
2017-12-16T04:26:27.304Z,15.00
2017-12-16T04:27:27.304Z,14.00
2017-12-16T04:28:27.298Z,13.40
2017-12-16T04:29:27.296Z,15.30
2017-12-16T04:30:27.288Z,12.80
2017-12-16T04:31:27.289Z,16.10
2017-12-16T04:32:27.279Z,13.20
2017-12-16T04:33:27.276Z,14.40
2017-12-16T04:34:27.273Z,14.50
2017-12-16T04:35:27.268Z,13.20
2017-12-16T04:36:27.264Z,15.00
2017-12-16T04:37:27.262Z,14.00
2017-12-16T04:38:27.260Z,13.60
2017-12-16T04:39:27.256Z,13.90
2017-12-16T04:40:27.246Z,14.20
2017-12-16T04:41:27.248Z,14.10
2017-12-16T04:42:27.236Z,13.40
2017-12-16T04:43:27.235Z,13.80
2017-12-16T04:44:27.232Z,13.30
2017-12-16T04:45:27.231Z,12.30
2017-12-16T04:46:27.224Z,14.10
2017-12-16T04:47:27.216Z,13.80
2017-12-16T04:48:27.215Z,13.60
2017-12-16T04:49:27.208Z,13.50
2017-12-16T04:50:27.220Z,12.70
2017-12-16T04:51:27.202Z,13.20
2017-12-16T04:52:27.199Z,12.80
2017-12-16T04:53:27.194Z,12.70
2017-12-16T04:54:27.186Z,13.00
2017-12-16T04:55:27.184Z,13.20
2017-12-16T04:56:27.189Z,12.60
2017-12-16T04:57:27.180Z,12.10
2017-12-16T04:58:27.172Z,12.70
2017-12-16T04:59:27.170Z,12.80
2017-12-16T05:00:27.196Z,13.60
2017-12-16T05:01:27.165Z,12.90
2017-12-16T05:02:27.161Z,12.70
2017-12-16T05:03:27.159Z,11.20
2017-12-16T05:04:27.143Z,12.20
2017-12-16T05:05:27.142Z,12.10
2017-12-16T05:06:27.142Z,11.70
2017-12-16T05:07:27.137Z,11.90
2017-12-16T05:08:27.135Z,13.20
2017-12-16T05:09:27.132Z,12.90
2017-12-16T05:10:27.124Z,12.40
2017-12-16T05:11:27.128Z,11.90
2017-12-16T05:12:27.113Z,12.20
2017-12-16T05:13:27.112Z,13.90
2017-12-16T05:14:27.103Z,12.00
2017-12-16T05:15:27.104Z,12.70
2017-12-16T05:16:27.096Z,12.10
2017-12-16T05:17:27.093Z,12.50
2017-12-16T05:18:27.086Z,11.70
2017-12-16T05:19:27.084Z,11.20
2017-12-16T05:20:27.079Z,11.40
2017-12-16T05:21:27.078Z,12.20
2017-12-16T05:22:27.075Z,11.90
2017-12-16T05:23:27.072Z,10.90
2017-12-16T05:24:27.060Z,10.80
2017-12-16T05:25:27.068Z,11.40
2017-12-16T05:26:27.055Z,11.70
2017-12-16T05:27:27.049Z,12.00
2017-12-16T05:28:27.048Z,11.50
2017-12-16T05:29:27.042Z,10.90
2017-12-16T05:30:27.040Z,12.20
2017-12-16T05:31:27.033Z,11.80
2017-12-16T05:32:27.031Z,12.00
2017-12-16T05:33:27.100Z,11.30
2017-12-16T05:34:27.026Z,12.10
2017-12-16T05:35:27.024Z,11.30
2017-12-16T05:36:27.021Z,12.00
2017-12-16T05:37:27.021Z,12.30
2017-12-16T05:38:27.006Z,13.00
2017-12-16T05:39:27.003Z,13.60
2017-12-16T05:40:27.003Z,14.40
2017-12-16T05:41:27.000Z,13.10
2017-12-16T05:42:26.994Z,11.70
2017-12-16T05:43:26.986Z,14.00
2017-12-16T05:44:26.982Z,13.20
2017-12-16T05:45:26.983Z,12.30
2017-12-16T05:46:26.982Z,11.70
2017-12-16T05:47:26.973Z,12.40
2017-12-16T05:48:26.978Z,12.70
2017-12-16T05:49:26.966Z,14.00
2017-12-16T05:50:26.962Z,12.70
2017-12-16T05:51:26.958Z,12.70
2017-12-16T05:52:26.952Z,13.40
2017-12-16T05:53:26.953Z,11.50
2017-12-16T05:54:26.942Z,12.20
2017-12-16T05:55:26.938Z,12.40
2017-12-16T05:56:26.935Z,11.00
2017-12-16T05:57:26.932Z,12.40
2017-12-16T05:58:26.937Z,12.30
2017-12-16T05:59:26.921Z,12.20
2017-12-16T06:00:26.922Z,11.80
2017-12-16T06:01:26.917Z,11.40
2017-12-16T06:02:26.912Z,11.40
2017-12-16T06:03:26.912Z,12.60
2017-12-16T06:04:26.909Z,12.20
2017-12-16T06:05:26.902Z,12.70
2017-12-16T06:06:26.901Z,12.30
2017-12-16T06:07:26.894Z,13.20
2017-12-16T06:08:26.891Z,11.80
2017-12-16T06:09:26.892Z,11.90
2017-12-16T06:10:26.892Z,13.00
2017-12-16T06:11:26.878Z,13.10
2017-12-16T06:12:26.872Z,12.00
2017-12-16T06:13:26.870Z,12.30
2017-12-16T06:14:26.876Z,12.00
2017-12-16T06:15:26.861Z,11.60
2017-12-16T06:16:26.854Z,12.00
2017-12-16T06:17:26.855Z,11.90
2017-12-16T06:18:26.854Z,10.80
2017-12-16T06:19:26.850Z,12.70
2017-12-16T06:20:26.843Z,12.50
2017-12-16T06:21:26.840Z,13.40
2017-12-16T06:22:26.835Z,13.00
2017-12-16T06:23:26.829Z,12.50
2017-12-16T06:24:26.828Z,12.10
2017-12-16T06:25:26.820Z,12.70
2017-12-16T06:26:26.824Z,12.80
2017-12-16T06:27:26.826Z,12.30
2017-12-16T06:28:26.814Z,12.60
2017-12-16T06:29:26.806Z,12.00
2017-12-16T06:30:26.802Z,12.60
2017-12-16T06:31:26.797Z,12.10
2017-12-16T06:32:26.792Z,12.60
2017-12-16T06:33:26.792Z,12.40
2017-12-16T06:34:26.795Z,11.50
2017-12-16T06:35:26.783Z,12.60
2017-12-16T06:36:26.776Z,12.80
2017-12-16T06:37:26.773Z,10.90
2017-12-16T06:38:26.770Z,12.10
2017-12-16T06:39:26.779Z,11.30
2017-12-16T06:40:26.763Z,12.20
2017-12-16T06:41:26.767Z,11.90
2017-12-16T06:42:26.758Z,11.20
2017-12-16T06:43:26.788Z,12.10
2017-12-16T06:44:26.747Z,11.90
2017-12-16T06:45:26.746Z,12.50
2017-12-16T06:46:26.739Z,13.90
2017-12-16T06:47:26.748Z,13.90
2017-12-16T06:48:26.731Z,13.30
2017-12-16T06:49:26.728Z,12.20
2017-12-16T06:50:26.720Z,11.30
2017-12-16T06:51:26.722Z,11.90
2017-12-16T06:52:26.715Z,11.70
2017-12-16T06:53:26.719Z,12.90
2017-12-16T06:54:26.706Z,12.10
2017-12-16T06:55:26.701Z,11.40
2017-12-16T06:56:26.707Z,11.30
2017-12-16T06:57:26.698Z,11.10
2017-12-16T06:58:26.691Z,11.00
2017-12-16T06:59:26.691Z,11.00
2017-12-16T07:00:26.682Z,10.90
2017-12-16T07:01:26.683Z,10.80
2017-12-16T07:02:26.679Z,12.40
2017-12-16T07:03:26.672Z,12.50
2017-12-16T07:04:26.667Z,10.80
2017-12-16T07:05:26.666Z,11.60
2017-12-16T07:06:26.660Z,11.00
2017-12-16T07:07:26.654Z,10.80
2017-12-16T07:08:26.654Z,10.60
2017-12-16T07:09:26.653Z,10.60
2017-12-16T07:10:26.644Z,10.60
2017-12-16T07:11:26.640Z,11.20
2017-12-16T07:12:26.643Z,10.60
2017-12-16T07:13:26.642Z,11.30
2017-12-16T07:14:26.628Z,11.00
2017-12-16T07:15:26.624Z,11.40
2017-12-16T07:16:26.668Z,11.30
2017-12-16T07:17:26.620Z,10.30
2017-12-16T07:18:26.613Z,10.80
2017-12-16T07:19:26.609Z,10.30
2017-12-16T07:20:26.604Z,10.70
2017-12-16T07:21:26.601Z,10.90
2017-12-16T07:22:26.599Z,10.50
2017-12-16T07:23:26.594Z,11.00
2017-12-16T07:24:26.587Z,10.50
2017-12-16T07:25:26.585Z,10.90
2017-12-16T07:26:26.577Z,10.60
2017-12-16T07:27:26.580Z,10.90
2017-12-16T07:28:26.571Z,11.00
2017-12-16T07:29:26.569Z,11.70
2017-12-16T07:30:26.563Z,10.90
2017-12-16T07:31:26.564Z,11.90
2017-12-16T07:32:26.554Z,10.80
2017-12-16T07:33:26.549Z,12.50
2017-12-16T07:34:26.543Z,12.40
2017-12-16T07:35:26.541Z,13.10
2017-12-16T07:36:26.538Z,11.90
2017-12-16T07:37:26.529Z,11.80
2017-12-16T07:38:26.530Z,11.40
2017-12-16T07:39:26.522Z,12.00
2017-12-16T07:40:26.520Z,10.30
2017-12-16T07:41:26.518Z,11.10
2017-12-16T07:42:26.518Z,11.20
2017-12-16T07:43:26.506Z,11.00
2017-12-16T07:44:26.507Z,10.40
2017-12-16T07:45:26.608Z,9.40
2017-12-16T07:46:26.492Z,11.10
2017-12-16T07:47:26.488Z,11.00
2017-12-16T07:48:26.487Z,12.60
2017-12-16T07:49:26.481Z,11.70
2017-12-16T07:50:26.481Z,11.70
2017-12-16T07:51:26.498Z,10.30
2017-12-16T07:52:26.463Z,10.70
2017-12-16T07:53:26.467Z,11.20
2017-12-16T07:54:26.455Z,9.90
2017-12-16T07:55:26.457Z,11.10
2017-12-16T07:56:26.450Z,9.70
2017-12-16T07:57:26.446Z,10.40
2017-12-16T07:58:26.441Z,11.00
2017-12-16T07:59:26.440Z,9.80
2017-12-16T08:00:26.432Z,11.20
2017-12-16T08:01:26.429Z,10.80
2017-12-16T08:02:26.424Z,9.70
2017-12-16T08:03:26.420Z,10.20
2017-12-16T08:04:26.416Z,9.60
2017-12-16T08:05:26.414Z,9.80
2017-12-16T08:06:26.410Z,9.60
2017-12-16T08:07:26.404Z,10.20
2017-12-16T08:08:26.401Z,9.80
2017-12-16T08:09:26.395Z,10.80
2017-12-16T08:10:26.392Z,10.80
2017-12-16T08:11:26.392Z,11.00
2017-12-16T08:12:26.384Z,9.70
2017-12-16T08:13:26.389Z,9.90
2017-12-16T08:14:26.377Z,9.60
2017-12-16T08:15:26.537Z,8.50
2017-12-16T08:16:26.366Z,9.70
2017-12-16T08:17:26.362Z,8.10
2017-12-16T08:18:26.358Z,8.60
2017-12-16T08:19:26.353Z,8.90
2017-12-16T08:20:26.352Z,8.50
2017-12-16T08:21:26.345Z,9.10
2017-12-16T08:22:26.395Z,9.00
2017-12-16T08:23:26.343Z,8.70
2017-12-16T08:24:26.386Z,7.30
2017-12-16T08:25:26.335Z,7.60
2017-12-16T08:26:26.327Z,8.40
2017-12-16T08:27:26.320Z,8.50
2017-12-16T08:28:26.320Z,7.70
2017-12-16T08:29:26.313Z,7.90
2017-12-16T08:30:26.311Z,8.60
2017-12-16T08:31:26.305Z,7.90
2017-12-16T08:32:26.302Z,8.30
2017-12-16T08:33:26.294Z,8.10
2017-12-16T08:34:26.293Z,8.60
2017-12-16T08:35:26.292Z,8.40
2017-12-16T08:36:26.284Z,8.50
2017-12-16T08:37:26.288Z,7.90
2017-12-16T08:38:26.276Z,7.00
2017-12-16T08:39:26.272Z,7.20
2017-12-16T08:40:26.266Z,7.10
2017-12-16T08:41:26.265Z,7.40
2017-12-16T08:42:26.263Z,7.50
2017-12-16T08:43:26.255Z,7.50
2017-12-16T08:44:26.250Z,7.40
2017-12-16T08:45:26.248Z,7.00
2017-12-16T08:46:26.239Z,7.00
2017-12-16T08:47:26.242Z,6.40
2017-12-16T08:48:26.230Z,6.80
2017-12-16T08:49:26.230Z,6.70
2017-12-16T08:50:26.226Z,6.60
2017-12-16T08:51:26.224Z,6.70
2017-12-16T08:52:26.213Z,5.90
2017-12-16T08:53:26.216Z,6.30
2017-12-16T08:54:26.206Z,6.30
2017-12-16T08:55:26.211Z,5.90
2017-12-16T08:56:26.199Z,6.10
2017-12-16T08:57:26.196Z,6.00
2017-12-16T08:58:26.190Z,5.40
2017-12-16T08:59:26.182Z,5.10
2017-12-16T09:00:26.183Z,5.40
2017-12-16T09:01:26.174Z,5.30
2017-12-16T09:02:26.174Z,4.90
2017-12-16T09:03:26.166Z,5.20
2017-12-16T09:04:26.161Z,4.80
2017-12-16T09:05:26.160Z,5.50
2017-12-16T09:06:26.154Z,5.40
2017-12-16T09:07:26.149Z,5.50
2017-12-16T09:08:26.143Z,4.40
2017-12-16T09:09:26.143Z,7.40
2017-12-16T09:10:26.147Z,6.10
2017-12-16T09:11:26.131Z,5.40
2017-12-16T09:12:26.155Z,6.20
2017-12-16T09:13:26.124Z,5.50
2017-12-16T09:14:26.121Z,5.10
2017-12-16T09:15:26.125Z,5.80
2017-12-16T09:16:26.108Z,5.20
2017-12-16T09:17:26.105Z,5.70
2017-12-16T09:18:26.105Z,5.10
2017-12-16T09:19:26.095Z,5.30
2017-12-16T09:20:26.098Z,5.50
2017-12-16T09:21:26.084Z,5.50
2017-12-16T09:22:26.084Z,6.50
2017-12-16T09:23:26.085Z,5.90
2017-12-16T09:24:26.075Z,5.90
2017-12-16T09:25:26.070Z,5.20
2017-12-16T09:26:26.068Z,6.10
2017-12-16T09:27:26.061Z,5.90
2017-12-16T09:28:26.061Z,6.50
2017-12-16T09:29:26.054Z,7.90
2017-12-16T09:30:26.053Z,8.00
2017-12-16T09:31:26.047Z,6.80
2017-12-16T09:32:26.047Z,7.10
2017-12-16T09:33:26.034Z,7.70
2017-12-16T09:34:26.034Z,6.90
2017-12-16T09:35:26.035Z,7.40
2017-12-16T09:36:26.022Z,7.60
2017-12-16T09:37:26.018Z,7.50
2017-12-16T09:38:26.013Z,7.30
2017-12-16T09:39:26.021Z,7.30
2017-12-16T09:40:26.009Z,7.40
2017-12-16T09:41:26.002Z,7.30
2017-12-16T09:42:25.998Z,7.40
2017-12-16T09:43:25.989Z,8.30
2017-12-16T09:44:25.988Z,7.50
2017-12-16T09:45:25.993Z,7.80
2017-12-16T09:46:25.980Z,7.80
2017-12-16T09:47:25.975Z,8.00
2017-12-16T09:48:25.973Z,8.30
2017-12-16T09:49:25.968Z,8.20
2017-12-16T09:50:25.961Z,7.50
2017-12-16T09:52:58.070Z,8.60
2017-12-16T09:53:58.031Z,8.20
2017-12-16T09:54:58.025Z,9.30
2017-12-16T09:55:58.017Z,8.20
2017-12-16T09:56:58.026Z,9.40
2017-12-16T09:57:58.008Z,8.80
2017-12-16T09:58:58.005Z,9.00
2017-12-16T09:59:58.012Z,8.40
2017-12-16T10:00:57.996Z,8.60
2017-12-16T10:01:57.999Z,8.20
2017-12-16T10:02:58.005Z,8.50
2017-12-16T10:03:57.985Z,9.10
2017-12-16T10:04:57.985Z,8.60
2017-12-16T10:05:57.980Z,8.80
2017-12-16T10:06:57.979Z,8.40
2017-12-16T10:07:57.976Z,8.50
2017-12-16T10:08:57.978Z,8.20
2017-12-16T10:09:57.963Z,7.40
2017-12-16T10:10:57.955Z,9.00
2017-12-16T10:11:57.953Z,8.30
2017-12-16T10:12:57.957Z,7.70
2017-12-16T10:13:57.949Z,9.10
2017-12-16T10:14:57.940Z,8.90
2017-12-16T10:15:57.935Z,7.70
2017-12-16T10:16:57.934Z,8.10
2017-12-16T10:17:57.940Z,7.80
2017-12-16T10:18:57.928Z,8.40
2017-12-16T10:19:57.919Z,8.60
2017-12-16T10:20:57.929Z,8.00
2017-12-16T10:21:57.914Z,8.50
2017-12-16T10:22:57.912Z,9.40
2017-12-16T10:23:57.911Z,8.40
2017-12-16T10:24:57.899Z,8.90
2017-12-16T10:25:57.894Z,7.50
2017-12-16T10:26:57.897Z,8.20
2017-12-16T10:27:57.886Z,7.80
2017-12-16T10:28:57.892Z,8.70
2017-12-16T10:29:57.882Z,7.90
2017-12-16T10:30:57.878Z,8.50
2017-12-16T10:31:57.872Z,7.70
2017-12-16T10:32:57.863Z,8.10
2017-12-16T10:33:57.864Z,7.80
2017-12-16T10:34:57.870Z,7.50
2017-12-16T10:35:57.926Z,7.40
2017-12-16T10:36:57.853Z,6.20
2017-12-16T10:37:57.851Z,7.00
2017-12-16T10:38:57.845Z,6.90
2017-12-16T10:39:57.851Z,6.70
2017-12-16T10:40:57.840Z,7.60
2017-12-16T10:41:57.835Z,6.40
2017-12-16T10:42:57.826Z,7.10
2017-12-16T10:43:57.824Z,6.60
2017-12-16T10:44:57.819Z,6.70
2017-12-16T10:45:57.823Z,6.50
2017-12-16T10:46:57.818Z,7.10
2017-12-16T10:47:57.812Z,6.80
2017-12-16T10:48:57.805Z,7.00
2017-12-16T10:49:57.859Z,6.30
2017-12-16T10:50:57.919Z,7.00
2017-12-16T10:51:57.793Z,5.70
2017-12-16T10:52:57.791Z,6.30
2017-12-16T10:53:57.781Z,7.10
2017-12-16T10:54:57.817Z,6.70
2017-12-16T10:55:57.776Z,5.60
2017-12-16T10:56:57.775Z,6.00
2017-12-16T10:57:57.766Z,6.80
2017-12-16T10:58:57.763Z,9.10
2017-12-16T10:59:57.765Z,9.00
2017-12-16T11:00:57.760Z,8.20
2017-12-16T11:01:57.753Z,7.30
2017-12-16T11:02:57.757Z,6.40
2017-12-16T11:03:57.746Z,6.70
2017-12-16T11:04:57.747Z,6.40
2017-12-16T11:05:57.734Z,6.40
2017-12-16T11:06:57.735Z,6.00
2017-12-16T11:07:57.737Z,6.90
2017-12-16T11:08:57.730Z,6.30
2017-12-16T11:09:57.721Z,6.80
2017-12-16T11:10:57.725Z,6.80
2017-12-16T11:11:57.715Z,6.30
2017-12-16T11:12:57.715Z,6.80
2017-12-16T11:13:57.714Z,5.70
2017-12-16T11:14:57.708Z,5.50
2017-12-16T11:15:57.701Z,5.80
2017-12-16T11:16:57.715Z,5.70
2017-12-16T11:17:57.694Z,5.50
2017-12-16T11:18:57.695Z,6.50
2017-12-16T11:19:57.693Z,5.60
2017-12-16T11:20:57.687Z,5.40
2017-12-16T11:21:57.685Z,5.10
2017-12-16T11:22:57.687Z,4.80
2017-12-16T11:23:57.675Z,5.20
2017-12-16T11:24:57.670Z,5.90
2017-12-16T11:25:57.669Z,6.30
2017-12-16T11:26:57.664Z,4.60
2017-12-16T11:27:57.658Z,5.00
2017-12-16T11:28:57.652Z,4.60
2017-12-16T11:29:57.653Z,4.30
2017-12-16T11:30:57.645Z,4.70
2017-12-16T11:31:57.644Z,4.70
2017-12-16T11:32:57.638Z,4.60
2017-12-16T11:33:57.634Z,4.90
2017-12-16T11:34:57.635Z,4.40
2017-12-16T11:35:57.634Z,4.90
2017-12-16T11:36:57.624Z,4.40
2017-12-16T11:37:57.622Z,4.20
2017-12-16T11:38:57.617Z,5.00
2017-12-16T11:39:57.614Z,4.70
2017-12-16T11:40:57.610Z,5.20
2017-12-16T11:41:57.610Z,4.30
2017-12-16T11:42:57.608Z,4.20
2017-12-16T11:43:57.603Z,4.20
2017-12-16T11:44:57.599Z,4.20
2017-12-16T11:45:57.592Z,4.50
2017-12-16T11:46:57.586Z,4.90
2017-12-16T11:47:57.586Z,4.70
2017-12-16T11:48:57.578Z,4.50
2017-12-16T11:49:57.580Z,5.30
2017-12-16T11:50:57.581Z,4.70
2017-12-16T11:51:57.573Z,4.80
2017-12-16T11:52:57.571Z,4.70
2017-12-16T11:53:57.564Z,4.80
2017-12-16T11:54:57.562Z,4.50
2017-12-16T11:55:57.566Z,4.70
2017-12-16T11:56:57.550Z,5.20
2017-12-16T11:57:57.548Z,4.50
2017-12-16T11:58:57.544Z,4.20
2017-12-16T11:59:57.539Z,4.40
2017-12-16T12:00:57.539Z,4.20
2017-12-16T12:01:57.533Z,4.30
2017-12-16T12:02:57.532Z,4.30
2017-12-16T12:03:57.527Z,4.20
2017-12-16T12:04:57.524Z,4.40
2017-12-16T12:05:57.528Z,4.60
2017-12-16T12:06:57.519Z,4.20
2017-12-16T12:07:57.513Z,3.50
2017-12-16T12:08:57.511Z,4.60
2017-12-16T12:09:57.509Z,4.50
2017-12-16T12:10:57.511Z,4.20
2017-12-16T12:11:57.506Z,3.90
2017-12-16T12:12:57.495Z,3.90
2017-12-16T12:13:57.489Z,3.30
2017-12-16T12:14:57.490Z,3.50
2017-12-16T12:15:57.482Z,3.80
2017-12-16T12:16:57.482Z,4.00
2017-12-16T12:17:57.478Z,3.50
2017-12-16T12:18:57.474Z,3.30
2017-12-16T12:19:57.476Z,3.70
2017-12-16T12:20:57.466Z,3.30
2017-12-16T12:21:57.463Z,3.40
2017-12-16T12:22:57.460Z,4.60
2017-12-16T12:23:57.459Z,4.50
2017-12-16T12:24:57.451Z,3.60
2017-12-16T12:25:57.456Z,3.40
2017-12-16T12:26:57.469Z,3.50
2017-12-16T12:27:57.447Z,2.90
2017-12-16T12:28:57.445Z,2.90
2017-12-16T12:29:57.437Z,3.10
2017-12-16T12:30:57.434Z,3.20
2017-12-16T12:31:57.431Z,2.60
2017-12-16T12:32:57.429Z,2.30
2017-12-16T12:33:57.423Z,2.80
2017-12-16T12:34:57.425Z,2.90
2017-12-16T12:35:57.429Z,2.80
2017-12-16T12:36:57.412Z,2.70
2017-12-16T12:37:57.415Z,2.70
2017-12-16T12:38:57.420Z,2.10
2017-12-16T12:39:57.473Z,2.50
2017-12-16T12:40:57.405Z,2.40
2017-12-16T12:41:57.401Z,2.30
2017-12-16T12:42:57.399Z,2.40
2017-12-16T12:43:57.394Z,2.70
2017-12-16T12:44:57.392Z,2.90
2017-12-16T12:45:57.389Z,3.00
2017-12-16T12:46:57.385Z,3.20
2017-12-16T12:47:57.412Z,3.40
2017-12-16T12:48:57.378Z,3.20
2017-12-16T12:49:57.375Z,2.80
2017-12-16T12:50:57.371Z,3.00
2017-12-16T12:51:57.372Z,3.10
2017-12-16T12:52:57.363Z,3.10
2017-12-16T12:55:29.479Z,3.80
2017-12-16T12:56:29.434Z,2.90
2017-12-16T12:57:29.435Z,2.80
2017-12-16T12:58:29.439Z,3.00
2017-12-16T12:59:29.426Z,2.20
2017-12-16T13:00:29.425Z,2.70
2017-12-16T13:01:29.419Z,2.40
2017-12-16T13:02:30.082Z,3.10
2017-12-16T13:03:29.414Z,2.60
2017-12-16T13:04:29.405Z,2.30
2017-12-16T13:05:29.428Z,2.00
2017-12-16T13:06:29.401Z,2.20
2017-12-16T13:07:29.402Z,2.70
2017-12-16T13:08:29.393Z,2.20
2017-12-16T13:09:29.400Z,2.80
2017-12-16T13:10:29.391Z,3.70
2017-12-16T13:17:05.446Z,2.30
2017-12-16T13:18:05.412Z,2.70
2017-12-16T13:19:05.408Z,4.10
2017-12-16T13:20:05.404Z,2.60
2017-12-16T13:21:05.410Z,2.40
2017-12-16T13:22:05.396Z,2.50
2017-12-16T13:23:05.400Z,2.40
2017-12-16T13:24:05.391Z,2.70
2017-12-16T13:25:05.392Z,2.40